Terminal Aerodrome Forecast
Issued by NWS Cleveland, OH

Home | Current Version | Previous Version | Graphics & Text | Print | Product List | Glossary Off
Versions: 1 2 3 4 5 6 7 8 9 10 11 12 13 14 15 16 17

000
FTUS41 KCLE 281122
TAFMFD
TAF
KMFD 281122Z 2812/2912 18004KT P6SM SCT090
     FM281500 19008KT P6SM BKN200
     FM282200 13008KT P6SM BKN140
     FM290600 16010KT 5SM -SHRA OVC015=

USA.gov is the U.S. government's official web portal to all federal, state and local government web resources and services.